createdAt,value
2022-09-12T00:01:29.963Z,81.54
2022-09-12T00:03:59.066Z,81.88
2022-09-12T00:06:31.838Z,82.54
2022-09-12T00:09:08.470Z,84.00
2022-09-12T00:11:37.482Z,84.83
2022-09-12T00:14:05.151Z,85.95
2022-09-12T00:16:33.635Z,86.36
2022-09-12T00:19:01.420Z,86.84
2022-09-12T00:21:28.929Z,88.06
2022-09-12T00:23:55.559Z,88.62
2022-09-12T00:26:22.175Z,89.16
2022-09-12T00:28:49.401Z,88.74
2022-09-12T00:31:19.265Z,89.89
2022-09-12T00:33:46.706Z,90.33
2022-09-12T00:36:16.737Z,90.69
2022-09-12T00:38:45.282Z,91.02
2022-09-12T00:41:35.267Z,91.03
2022-09-12T00:44:21.731Z,90.90
2022-09-12T00:46:51.371Z,90.96
2022-09-12T00:49:28.124Z,91.05
2022-09-12T00:52:08.684Z,90.56
2022-09-12T00:54:47.658Z,90.70
2022-09-12T00:57:16.545Z,90.71
2022-09-12T01:00:15.470Z,90.24
2022-09-12T01:02:46.073Z,89.86
2022-09-12T01:05:13.740Z,89.35
2022-09-12T01:07:41.657Z,89.35
2022-09-12T01:10:09.846Z,89.91
2022-09-12T01:12:38.227Z,89.68
2022-09-12T01:15:05.311Z,87.71
2022-09-12T01:17:44.934Z,86.73
2022-09-12T01:20:17.368Z,86.38
2022-09-12T01:23:21.761Z,85.31
2022-09-12T01:26:02.966Z,85.35
2022-09-12T01:29:00.675Z,84.60
2022-09-12T01:31:42.368Z,84.31
2022-09-12T01:34:28.810Z,84.28
2022-09-12T01:37:02.371Z,83.56
2022-09-12T01:39:53.922Z,83.91
2022-09-12T01:42:32.880Z,84.16
2022-09-12T01:44:59.425Z,84.42
2022-09-12T01:47:51.395Z,85.49
2022-09-12T01:50:22.879Z,86.00
2022-09-12T01:52:54.731Z,87.01
2022-09-12T01:55:28.673Z,87.28
2022-09-12T01:58:06.092Z,87.60
2022-09-12T02:00:35.637Z,87.72
2022-09-12T02:03:09.528Z,87.44
2022-09-12T02:05:44.679Z,87.81
2022-09-12T02:08:38.093Z,87.72
2022-09-12T02:11:11.073Z,87.92
2022-09-12T02:13:40.397Z,87.90
2022-09-12T02:16:17.052Z,87.22
2022-09-12T02:18:52.382Z,87.78
2022-09-12T02:21:22.416Z,88.88
2022-09-12T02:23:57.333Z,88.78
2022-09-12T02:26:29.603Z,88.83
2022-09-12T02:28:57.479Z,88.08
2022-09-12T02:31:42.602Z,87.56
2022-09-12T02:34:21.220Z,87.80
2022-09-12T02:36:56.857Z,86.81
2022-09-12T02:39:23.577Z,85.71
2022-09-12T02:41:58.092Z,84.83
2022-09-12T02:44:26.883Z,84.40
2022-09-12T02:47:03.918Z,83.80
2022-09-12T02:49:30.783Z,84.49
2022-09-12T02:51:57.669Z,83.52
2022-09-12T02:54:25.854Z,82.79
2022-09-12T02:56:52.284Z,82.69
2022-09-12T02:59:21.721Z,82.65
2022-09-12T03:02:07.168Z,82.41
2022-09-12T03:04:43.328Z,82.13
2022-09-12T03:07:42.540Z,82.03
2022-09-12T03:10:23.175Z,81.76
2022-09-12T03:13:00.936Z,81.37
2022-09-12T03:15:27.450Z,82.35
2022-09-12T03:18:12.794Z,82.52
2022-09-12T03:20:39.312Z,82.78
2022-09-12T03:23:15.533Z,82.38
2022-09-12T03:25:53.386Z,82.90
2022-09-12T03:28:22.229Z,82.63
2022-09-12T03:30:54.841Z,82.33
2022-09-12T03:33:23.617Z,82.25
2022-09-12T03:35:51.323Z,82.42
2022-09-12T03:38:18.849Z,82.76
2022-09-12T03:40:49.326Z,82.75
2022-09-12T03:43:18.153Z,82.69
2022-09-12T03:45:44.799Z,83.84
2022-09-12T03:48:11.471Z,84.65
2022-09-12T03:50:38.016Z,84.07
2022-09-12T03:53:04.725Z,84.11
2022-09-12T03:55:31.388Z,84.92
2022-09-12T03:57:58.098Z,84.48
2022-09-12T04:00:24.838Z,84.60
2022-09-12T04:02:57.021Z,85.09
2022-09-12T04:05:25.839Z,85.50
2022-09-12T04:07:52.648Z,85.76
2022-09-12T04:10:19.383Z,87.74
2022-09-12T04:12:45.981Z,88.36
2022-09-12T04:15:12.660Z,87.83
2022-09-12T04:17:39.288Z,87.92
2022-09-12T04:20:06.890Z,87.92
2022-09-12T04:22:33.799Z,85.74
2022-09-12T04:25:00.593Z,85.99
2022-09-12T04:27:27.168Z,85.94
2022-09-12T04:29:55.280Z,85.30
2022-09-12T04:32:22.507Z,85.50
2022-09-12T04:34:49.185Z,84.52
2022-09-12T04:37:16.895Z,84.30
2022-09-12T04:39:43.636Z,84.71
2022-09-12T04:42:10.403Z,85.22
2022-09-12T04:44:37.586Z,84.87
2022-09-12T04:47:04.285Z,85.22
2022-09-12T04:49:31.124Z,85.21
2022-09-12T04:51:57.808Z,85.89
2022-09-12T04:54:24.718Z,86.26
2022-09-12T04:56:52.599Z,85.85
2022-09-12T04:59:21.461Z,86.04
2022-09-12T05:01:48.741Z,86.05
2022-09-12T05:04:15.492Z,85.94
2022-09-12T05:06:43.465Z,86.21
2022-09-12T05:09:14.407Z,86.91
2022-09-12T05:14:29.960Z,87.54
2022-09-12T05:16:59.993Z,87.72
2022-09-12T05:19:27.483Z,87.37
2022-09-12T05:21:54.015Z,87.95
2022-09-12T05:24:20.681Z,87.92
2022-09-12T05:26:47.513Z,88.34
2022-09-12T05:29:14.159Z,88.49
2022-09-12T05:31:41.173Z,89.30
2022-09-12T05:34:10.222Z,89.16
2022-09-12T05:36:37.349Z,88.75
2022-09-12T05:39:04.723Z,88.24
2022-09-12T05:41:33.605Z,87.98
2022-09-12T05:44:02.646Z,86.63
2022-09-12T05:46:31.841Z,86.04
2022-09-12T05:49:04.133Z,85.08
2022-09-12T05:51:34.442Z,83.71
2022-09-12T05:54:04.192Z,83.60
2022-09-12T05:56:33.518Z,82.81
2022-09-12T05:59:02.987Z,81.65
2022-09-12T06:01:31.607Z,80.67
2022-09-12T06:04:03.307Z,79.49
2022-09-12T06:06:31.570Z,79.56
2022-09-12T06:08:59.914Z,78.86
2022-09-12T06:11:29.004Z,78.66
2022-09-12T06:13:57.922Z,78.12
2022-09-12T06:16:27.587Z,77.26
2022-09-12T06:18:56.265Z,76.98
2022-09-12T06:21:24.132Z,76.88
2022-09-12T06:23:50.739Z,73.95
2022-09-12T06:26:22.470Z,73.93
2022-09-12T06:28:50.185Z,73.62
2022-09-12T06:31:22.860Z,73.01
2022-09-12T06:33:51.954Z,73.50
2022-09-12T06:36:22.586Z,72.50
2022-09-12T06:38:54.681Z,70.65
2022-09-12T06:41:21.503Z,70.43
2022-09-12T06:43:48.243Z,69.25
2022-09-12T06:46:15.003Z,69.20
2022-09-12T06:48:42.316Z,67.77
2022-09-12T06:51:15.534Z,67.49
2022-09-12T06:53:43.204Z,67.25
2022-09-12T06:56:19.268Z,65.30
2022-09-12T06:58:47.243Z,65.03
2022-09-12T07:01:20.782Z,63.59
2022-09-12T07:03:50.133Z,62.76
2022-09-12T07:06:19.476Z,64.62
2022-09-12T07:08:47.047Z,63.93
2022-09-12T07:11:15.016Z,63.29
2022-09-12T07:13:43.142Z,61.80
2022-09-12T07:16:10.623Z,62.39
2022-09-12T07:18:38.374Z,62.27
2022-09-12T07:21:11.294Z,62.58
2022-09-12T07:23:38.419Z,62.87
2022-09-12T07:26:05.166Z,63.59
2022-09-12T07:28:34.262Z,62.82
2022-09-12T07:31:08.191Z,62.07
2022-09-12T07:33:35.290Z,61.93
2022-09-12T07:36:11.709Z,61.56
2022-09-12T07:38:39.354Z,61.42
2022-09-12T07:41:21.051Z,59.80
2022-09-12T07:43:48.531Z,58.56
2022-09-12T07:46:15.167Z,58.01
2022-09-12T07:48:41.790Z,58.39
2022-09-12T07:51:10.932Z,58.21
2022-09-12T07:53:40.053Z,57.37
2022-09-12T07:56:08.147Z,58.23
2022-09-12T07:58:37.121Z,56.99
2022-09-12T08:01:08.868Z,56.84
2022-09-12T08:03:40.102Z,57.07
2022-09-12T08:06:27.905Z,56.16
2022-09-12T08:08:56.307Z,54.20
2022-09-12T08:11:24.251Z,54.58
2022-09-12T08:13:55.271Z,55.70
2022-09-12T08:16:27.157Z,53.19
2022-09-12T08:18:53.802Z,53.66
2022-09-12T08:21:23.116Z,53.17
2022-09-12T08:23:58.265Z,52.01
2022-09-12T08:26:24.951Z,49.50
2022-09-12T08:28:52.031Z,48.63
2022-09-12T08:31:21.024Z,49.06
2022-09-12T08:33:48.059Z,48.17
2022-09-12T08:36:26.319Z,49.14
2022-09-12T08:38:59.896Z,48.88
2022-09-12T08:41:40.796Z,47.36
2022-09-12T08:44:10.347Z,48.83
2022-09-12T08:47:04.347Z,46.92
2022-09-12T08:49:49.053Z,46.83
2022-09-12T08:52:54.717Z,46.38
2022-09-12T08:55:32.760Z,46.32
2022-09-12T08:58:01.513Z,44.08
2022-09-12T09:00:40.592Z,43.94
2022-09-12T09:03:44.410Z,43.75
2022-09-12T09:06:14.217Z,43.67
2022-09-12T09:08:51.991Z,43.59
2022-09-12T09:11:29.716Z,42.63
2022-09-12T09:14:30.936Z,43.65
2022-09-12T09:16:58.658Z,42.79
2022-09-12T09:19:33.066Z,42.49
2022-09-12T09:22:14.203Z,42.53
2022-09-12T09:24:49.548Z,42.80
2022-09-12T09:27:40.319Z,43.22
2022-09-12T09:30:19.169Z,42.92
2022-09-12T09:32:52.987Z,42.43
2022-09-12T09:35:36.331Z,43.12
2022-09-12T09:38:28.648Z,45.01
2022-09-12T09:41:04.787Z,43.27
2022-09-12T09:43:31.594Z,42.85
2022-09-12T09:46:00.518Z,42.92
2022-09-12T09:48:33.768Z,42.37
2022-09-12T09:51:03.181Z,41.84
2022-09-12T09:53:41.532Z,41.39
2022-09-12T09:56:37.066Z,41.38
2022-09-12T09:59:33.768Z,41.37
2022-09-12T10:02:21.825Z,40.74
2022-09-12T10:04:58.815Z,40.81
2022-09-12T10:07:27.078Z,40.05
2022-09-12T10:10:17.020Z,40.44
2022-09-12T10:12:44.468Z,40.57
2022-09-12T10:15:31.380Z,40.32
2022-09-12T10:17:58.917Z,40.83
2022-09-12T10:20:44.739Z,39.08
2022-09-12T10:23:20.468Z,39.27
2022-09-12T10:25:53.610Z,39.76
2022-09-12T10:28:27.148Z,39.04
2022-09-12T10:30:56.196Z,39.95
2022-09-12T10:33:25.872Z,39.03
2022-09-12T10:35:54.780Z,38.80
2022-09-12T10:38:28.480Z,38.62
2022-09-12T10:41:03.642Z,39.11
2022-09-12T10:43:34.629Z,39.42
2022-09-12T10:46:16.550Z,38.36
2022-09-12T10:48:44.721Z,38.47
2022-09-12T10:51:26.367Z,39.29
2022-09-12T10:54:05.283Z,37.30
2022-09-12T10:57:01.263Z,38.21
2022-09-12T10:59:31.455Z,38.38
2022-09-12T11:02:14.926Z,38.35
2022-09-12T11:04:50.500Z,37.09
2022-09-12T11:07:20.143Z,38.16
2022-09-12T11:09:46.661Z,37.43
2022-09-12T11:12:13.529Z,37.84
2022-09-12T11:14:52.142Z,37.34
2022-09-12T11:17:25.896Z,37.81
2022-09-12T11:20:10.578Z,36.05
2022-09-12T11:23:00.035Z,35.86
2022-09-12T11:25:40.583Z,34.88
2022-09-12T11:28:47.193Z,35.06
2022-09-12T11:31:13.978Z,36.30
2022-09-12T11:33:56.547Z,34.99
2022-09-12T11:37:09.908Z,35.16
2022-09-12T11:39:40.334Z,34.64
2022-09-12T11:42:18.226Z,35.52
2022-09-12T11:44:58.035Z,34.17
2022-09-12T11:47:26.518Z,34.72
2022-09-12T11:49:54.801Z,35.50
2022-09-12T11:52:25.137Z,35.70
2022-09-12T11:55:17.210Z,34.41
2022-09-12T11:57:54.312Z,33.50
2022-09-12T12:00:34.137Z,33.20
2022-09-12T12:03:06.749Z,34.41
2022-09-12T12:06:11.300Z,34.09
2022-09-12T12:08:40.818Z,34.44
2022-09-12T12:11:08.889Z,34.30
2022-09-12T12:13:49.762Z,33.06
2022-09-12T12:16:33.699Z,32.60
2022-09-12T12:19:02.748Z,33.04
2022-09-12T12:21:32.142Z,34.48
2022-09-12T12:24:09.939Z,34.31
2022-09-12T12:26:39.705Z,34.78
2022-09-12T12:29:10.398Z,34.18
2022-09-12T12:32:05.772Z,33.86
2022-09-12T12:34:32.352Z,32.41
2022-09-12T12:37:19.787Z,33.19
2022-09-12T12:39:50.359Z,32.47
2022-09-12T12:42:46.566Z,32.42
2022-09-12T12:45:19.028Z,34.02
2022-09-12T12:47:49.163Z,33.89
2022-09-12T12:50:21.434Z,34.20
2022-09-12T12:53:00.518Z,34.53
2022-09-12T12:55:51.648Z,34.23
2022-09-12T12:58:40.725Z,33.62
2022-09-12T13:01:15.951Z,34.77
2022-09-12T13:03:46.733Z,34.53
2022-09-12T13:06:34.164Z,34.72
2022-09-12T13:09:04.779Z,34.53
2022-09-12T13:11:36.817Z,33.88
2022-09-12T13:14:07.185Z,33.67
2022-09-12T13:16:55.751Z,33.64
2022-09-12T13:19:29.167Z,34.86
2022-09-12T13:22:10.107Z,35.58
2022-09-12T13:24:45.034Z,35.88
2022-09-12T13:27:25.975Z,36.30
2022-09-12T13:30:15.661Z,36.89
2022-09-12T13:32:43.969Z,36.78
2022-09-12T13:35:34.327Z,36.74
2022-09-12T13:38:12.242Z,34.94
2022-09-12T13:40:54.068Z,34.85
2022-09-12T13:43:38.682Z,32.86
2022-09-12T13:46:07.580Z,33.11
2022-09-12T13:48:34.770Z,32.32
2022-09-12T13:51:03.921Z,33.06
2022-09-12T13:53:43.704Z,32.50
2022-09-12T13:56:17.304Z,33.33
2022-09-12T13:59:00.379Z,34.41
2022-09-12T14:01:45.033Z,34.29
2022-09-12T14:04:39.374Z,33.38
2022-09-12T14:07:21.231Z,33.39
2022-09-12T14:09:59.898Z,33.72
2022-09-12T14:12:36.718Z,33.79
2022-09-12T14:15:04.092Z,34.56
2022-09-12T14:17:31.695Z,33.63
2022-09-12T14:20:05.522Z,33.10
2022-09-12T14:22:34.235Z,32.85
2022-09-12T14:25:02.060Z,32.17
2022-09-12T14:27:37.413Z,33.22
2022-09-12T14:30:30.491Z,33.65
2022-09-12T14:33:12.464Z,35.07
2022-09-12T14:36:18.342Z,35.72
2022-09-12T14:38:47.928Z,36.03
2022-09-12T14:41:23.492Z,34.99
2022-09-12T14:43:55.321Z,36.58
2022-09-12T14:46:28.557Z,36.57
2022-09-12T14:49:17.588Z,36.70
2022-09-12T14:51:56.526Z,36.41
2022-09-12T14:54:33.011Z,34.77
2022-09-12T14:57:03.139Z,35.51
2022-09-12T14:59:34.440Z,36.19
2022-09-12T15:02:20.000Z,36.38
2022-09-12T15:04:50.923Z,36.57
2022-09-12T15:07:28.519Z,36.76
2022-09-12T15:09:55.653Z,37.79
2022-09-12T15:12:23.152Z,37.39
2022-09-12T15:14:49.745Z,37.10
2022-09-12T15:17:16.747Z,36.85
2022-09-12T15:19:43.364Z,37.47
2022-09-12T15:22:13.888Z,37.13
2022-09-12T15:24:40.582Z,37.44
2022-09-12T15:27:13.419Z,37.18
2022-09-12T15:29:40.134Z,36.98
2022-09-12T15:32:15.054Z,37.21
2022-09-12T15:34:41.624Z,37.32
2022-09-12T15:37:14.381Z,37.18
2022-09-12T15:39:41.370Z,38.05
2022-09-12T15:42:09.909Z,38.06
2022-09-12T15:44:36.489Z,37.91
2022-09-12T15:47:03.151Z,38.30
2022-09-12T15:49:29.987Z,38.17
2022-09-12T15:51:56.612Z,38.54
2022-09-12T15:54:23.349Z,38.75
2022-09-12T15:56:50.203Z,38.61
2022-09-12T15:59:16.785Z,38.83
2022-09-12T16:01:43.452Z,37.68
2022-09-12T16:04:23.689Z,37.95
2022-09-12T16:06:51.485Z,38.19
2022-09-12T16:09:18.350Z,38.47
2022-09-12T16:11:45.493Z,37.95
2022-09-12T16:14:17.273Z,38.00
2022-09-12T16:16:45.138Z,38.01
2022-09-12T16:19:12.409Z,36.78
2022-09-12T16:21:39.110Z,36.87
2022-09-12T16:24:05.967Z,37.35
2022-09-12T16:26:32.590Z,38.09
2022-09-12T16:29:00.108Z,37.87
2022-09-12T16:31:27.623Z,37.47
2022-09-12T16:33:54.605Z,38.19
2022-09-12T16:36:22.224Z,38.19
2022-09-12T16:38:53.667Z,38.49
2022-09-12T16:41:24.697Z,37.99
2022-09-12T16:43:51.893Z,38.44
2022-09-12T16:46:28.744Z,38.70
2022-09-12T16:48:58.031Z,38.65
2022-09-12T16:51:27.616Z,39.14
2022-09-12T16:53:55.457Z,39.34
2022-09-12T16:56:22.756Z,39.16
2022-09-12T16:58:49.795Z,39.41
2022-09-12T17:01:19.566Z,39.58
2022-09-12T17:03:47.139Z,39.90
2022-09-12T17:06:18.407Z,39.97
2022-09-12T17:08:47.982Z,39.93
2022-09-12T17:11:17.612Z,40.40
2022-09-12T17:14:06.497Z,40.00
2022-09-12T17:16:35.333Z,40.61
2022-09-12T17:19:02.626Z,41.62
2022-09-12T17:21:29.262Z,41.34
2022-09-12T17:23:56.025Z,40.94
2022-09-12T17:26:22.838Z,41.13
2022-09-12T17:28:49.715Z,41.04
2022-09-12T17:31:17.166Z,40.36
2022-09-12T17:33:44.119Z,40.77
2022-09-12T17:36:15.264Z,40.79
2022-09-12T17:38:44.439Z,41.50
2022-09-12T17:41:20.110Z,41.40
2022-09-12T17:43:50.914Z,41.61
2022-09-12T17:46:19.141Z,42.05
2022-09-12T17:48:50.442Z,42.32
2022-09-12T17:51:17.301Z,42.48
2022-09-12T17:53:44.189Z,42.35
2022-09-12T17:56:11.694Z,42.94
2022-09-12T17:58:38.859Z,42.81
2022-09-12T18:01:31.950Z,43.42
2022-09-12T18:04:00.658Z,44.01
2022-09-12T18:06:32.035Z,44.14
2022-09-12T18:09:07.065Z,44.35
2022-09-12T18:11:33.705Z,44.41
2022-09-12T18:14:01.314Z,45.06
2022-09-12T18:16:31.594Z,44.70
2022-09-12T18:19:01.695Z,44.75
2022-09-12T18:21:29.410Z,45.09
2022-09-12T18:23:59.311Z,45.12
2022-09-12T18:26:27.810Z,45.70
2022-09-12T18:28:55.182Z,46.31
2022-09-12T18:31:25.477Z,46.98
2022-09-12T18:33:52.687Z,47.15
2022-09-12T18:36:20.301Z,47.56
2022-09-12T18:38:48.115Z,47.08
2022-09-12T18:41:20.775Z,47.52
2022-09-12T18:43:48.314Z,48.15
2022-09-12T18:46:19.562Z,49.02
2022-09-12T18:48:47.083Z,49.52
2022-09-12T18:51:18.202Z,49.69
2022-09-12T18:53:56.436Z,49.37
2022-09-12T18:56:26.428Z,50.06
2022-09-12T18:58:55.950Z,49.72
2022-09-12T19:01:25.355Z,50.08
2022-09-12T19:03:52.415Z,49.77
2022-09-12T19:06:27.360Z,50.23
2022-09-12T19:08:55.163Z,51.39
2022-09-12T19:11:23.247Z,51.06
2022-09-12T19:13:50.590Z,51.53
2022-09-12T19:16:20.878Z,51.51
2022-09-12T19:18:52.241Z,52.02
2022-09-12T19:21:24.753Z,52.40
2022-09-12T19:23:52.713Z,52.68
2022-09-12T19:26:20.699Z,52.89
2022-09-12T19:28:47.662Z,53.46
2022-09-12T19:31:18.860Z,53.66
2022-09-12T19:33:46.255Z,53.73
2022-09-12T19:36:40.870Z,53.97
2022-09-12T19:39:02.336Z,54.52
2022-09-12T19:41:29.018Z,54.56
2022-09-12T19:43:56.471Z,54.65
2022-09-12T19:46:24.896Z,55.38
2022-09-12T19:48:55.549Z,55.09
2022-09-12T19:51:24.317Z,55.68
2022-09-12T19:53:51.750Z,55.88
2022-09-12T19:56:18.516Z,55.84
2022-09-12T19:58:47.741Z,56.00
2022-09-12T20:01:25.185Z,56.33
2022-09-12T20:03:55.168Z,56.25
2022-09-12T20:06:22.101Z,56.53
2022-09-12T20:08:48.802Z,56.63
2022-09-12T20:11:18.113Z,56.90
2022-09-12T20:13:45.798Z,56.61
2022-09-12T20:16:22.659Z,56.31
2022-09-12T20:18:57.501Z,56.51
2022-09-12T20:21:31.045Z,56.37
2022-09-12T20:24:03.484Z,56.43
2022-09-12T20:26:30.809Z,55.94
2022-09-12T20:28:57.409Z,56.16
2022-09-12T20:31:24.095Z,55.97
2022-09-12T20:33:52.057Z,56.87
2022-09-12T20:36:20.625Z,56.98
2022-09-12T20:38:52.322Z,57.24
2022-09-12T20:41:20.494Z,57.20
2022-09-12T20:43:51.298Z,57.93
2022-09-12T20:46:21.649Z,58.36
2022-09-12T20:48:49.026Z,58.74
2022-09-12T20:51:17.845Z,58.95
2022-09-12T20:53:44.455Z,58.99
2022-09-12T20:56:11.149Z,59.55
2022-09-12T20:58:43.054Z,59.18
2022-09-12T21:01:12.386Z,59.59
2022-09-12T21:03:40.383Z,59.96
2022-09-12T21:06:08.505Z,60.36
2022-09-12T21:08:36.238Z,60.62
2022-09-12T21:11:03.517Z,60.81
2022-09-12T21:13:30.365Z,60.89
2022-09-12T21:16:10.651Z,61.03
2022-09-12T21:18:37.328Z,60.90
2022-09-12T21:21:05.776Z,60.95
2022-09-12T21:23:34.415Z,60.79
2022-09-12T21:26:01.638Z,60.22
2022-09-12T21:28:28.326Z,60.74
2022-09-12T21:30:56.117Z,60.64
2022-09-12T21:33:22.931Z,60.58
2022-09-12T21:35:50.159Z,61.06
2022-09-12T21:38:18.694Z,61.34
2022-09-12T21:40:46.151Z,61.56
2022-09-12T21:43:13.377Z,61.22
2022-09-12T21:45:40.543Z,61.55
2022-09-12T21:48:07.149Z,62.28
2022-09-12T21:50:33.756Z,62.02
2022-09-12T21:53:00.430Z,62.19
2022-09-12T21:55:27.431Z,62.38
2022-09-12T21:57:55.293Z,62.74
2022-09-12T22:00:22.669Z,62.52
2022-09-12T22:02:49.556Z,62.30
2022-09-12T22:05:17.269Z,62.74
2022-09-12T22:07:44.084Z,62.76
2022-09-12T22:10:10.772Z,62.68
2022-09-12T22:12:37.431Z,62.51
2022-09-12T22:15:23.009Z,62.78
2022-09-12T22:17:51.062Z,62.39
2022-09-12T22:20:17.851Z,61.93
2022-09-12T22:23:03.158Z,62.90
2022-09-12T22:25:30.896Z,62.22
2022-09-12T22:27:58.291Z,62.33
2022-09-12T22:30:27.381Z,62.35
2022-09-12T22:32:54.188Z,62.81
2022-09-12T22:35:21.066Z,63.09
2022-09-12T22:37:47.929Z,63.28
2022-09-12T22:40:15.760Z,63.79
2022-09-12T22:42:42.472Z,63.99
2022-09-12T22:45:09.730Z,63.20
2022-09-12T22:47:36.397Z,63.29
2022-09-12T22:50:03.224Z,63.06
2022-09-12T22:52:29.800Z,62.82
2022-09-12T22:54:57.011Z,62.96
2022-09-12T22:57:23.596Z,63.50
2022-09-12T22:59:50.268Z,64.20
2022-09-12T23:02:16.859Z,64.71
2022-09-12T23:04:44.206Z,64.79
2022-09-12T23:07:11.082Z,64.80
2022-09-12T23:09:37.662Z,64.96
2022-09-12T23:12:04.500Z,65.11
2022-09-12T23:14:31.147Z,65.51
2022-09-12T23:16:57.773Z,65.20
2022-09-12T23:19:24.450Z,64.85
2022-09-12T23:21:51.179Z,65.38
2022-09-12T23:24:17.975Z,65.54
2022-09-12T23:26:44.570Z,65.96
2022-09-12T23:29:11.498Z,65.85
2022-09-12T23:31:38.239Z,65.95
2022-09-12T23:34:09.310Z,65.12
2022-09-12T23:36:36.214Z,65.47
2022-09-12T23:39:03.387Z,65.77
2022-09-12T23:41:29.994Z,65.41
2022-09-12T23:43:56.964Z,65.75
2022-09-12T23:46:24.077Z,66.47
2022-09-12T23:48:53.189Z,66.25
2022-09-12T23:51:21.672Z,66.50
2022-09-12T23:53:48.331Z,66.23
2022-09-12T23:56:14.928Z,67.43
2022-09-12T23:58:41.805Z,67.64
